Time;durP1;ratioP1;P1;durP2;ratioP2;P2;SDS_P1;SDS_P2;PMS_P1;PMS_P2;Temp;Humidity;BMP_temperature;BMP_pressure;BME280_temperature;BME280_humidity;BME280_pressure;Samples;Min_cycle;Max_cycle;Signal;HPM_P1;HPM_P2
2022/07/23 00:01:41;;;;;;;9.77;8.77;;;;;;;15.66;87.33;100565.09;5098191;28;20455;-65
2022/07/23 00:04:07;;;;;;;9.53;8.53;;;;;;;15.69;87.37;100572.84;5099024;28;20479;-66
2022/07/23 00:06:34;;;;;;;10.87;9.40;;;;;;;15.75;87.50;100553.34;5098829;28;21299;-66
2022/07/23 00:09:01;;;;;;;9.97;8.97;;;;;;;15.78;87.36;100558.41;5098781;28;20453;-66
2022/07/23 00:11:27;;;;;;;11.33;8.30;;;;;;;15.84;87.21;100547.97;5098553;28;20499;-66
2022/07/23 00:13:54;;;;;;;9.87;8.23;;;;;;;15.81;87.16;100558.09;5098772;28;20549;-64
2022/07/23 00:16:21;;;;;;;10.90;8.67;;;;;;;15.75;87.32;100566.81;5099188;28;20470;-65
2022/07/23 00:18:49;;;;;;;9.90;8.80;;;;;;;15.84;87.05;100550.66;5099696;28;20451;-66
2022/07/23 00:21:16;;;;;;;12.93;9.27;;;;;;;15.84;87.22;100545.28;5099441;28;20471;-66
2022/07/23 00:23:42;;;;;;;12.70;8.77;;;;;;;15.82;86.89;100559.75;5100247;28;20462;-66
2022/07/23 00:26:09;;;;;;;16.13;9.77;;;;;;;15.71;86.97;100553.81;5099710;28;20470;-66
2022/07/23 00:28:36;;;;;;;13.03;8.80;;;;;;;15.83;87.03;100552.50;5099514;28;20455;-65
2022/07/23 00:31:02;;;;;;;11.83;9.53;;;;;;;15.80;86.76;100542.91;5099100;28;20470;-64
2022/07/23 00:33:29;;;;;;;10.23;9.20;;;;;;;15.87;86.68;100553.88;5099253;28;20948;-65
2022/07/23 00:35:57;;;;;;;11.10;8.57;;;;;;;15.81;86.59;100558.09;5098310;28;20483;-65
2022/07/23 00:38:24;;;;;;;16.70;9.97;;;;;;;15.74;86.71;100557.00;5099918;28;20955;-65
2022/07/23 00:40:50;;;;;;;9.80;8.90;;;;;;;15.68;86.79;100562.25;5102484;28;20466;-65
2022/07/23 00:43:17;;;;;;;11.67;10.40;;;;;;;15.38;87.95;100565.38;5102294;28;20443;-66
2022/07/23 00:45:44;;;;;;;10.53;9.33;;;;;;;15.39;88.28;100575.13;5101978;28;20463;-66
2022/07/23 00:48:10;;;;;;;13.63;10.00;;;;;;;15.53;88.19;100578.22;5102655;28;20435;-66
2022/07/23 00:50:37;;;;;;;14.73;11.50;;;;;;;15.60;87.67;100585.44;5102371;28;20524;-66
2022/07/23 00:53:05;;;;;;;13.00;11.03;;;;;;;15.69;87.03;100582.78;5103019;28;21150;-66
2022/07/23 00:55:33;;;;;;;10.70;9.67;;;;;;;15.66;86.37;100588.50;5101978;28;20517;-66
2022/07/23 00:58:00;;;;;;;11.47;10.40;;;;;;;15.74;86.17;100593.91;5102882;28;20439;-66
2022/07/23 01:00:27;;;;;;;12.30;10.70;;;;;;;15.69;85.94;100590.88;5101306;28;20462;-66
2022/07/23 01:02:54;;;;;;;10.73;9.63;;;;;;;15.78;85.59;100590.75;5102579;28;20488;-66
2022/07/23 01:05:21;;;;;;;16.07;10.67;;;;;;;15.83;85.29;100592.94;5102095;28;20428;-66
2022/07/23 01:07:48;;;;;;;11.70;10.30;;;;;;;15.84;84.69;100591.09;5103263;28;20432;-65
2022/07/23 01:10:32;;;;;;;12.17;10.97;;;;;;;15.86;84.42;100587.22;5101971;28;20431;-65
2022/07/23 01:12:59;;;;;;;10.80;9.70;;;;;;;15.88;83.88;100581.66;5102615;28;20498;-66
2022/07/23 01:15:26;;;;;;;15.00;10.30;;;;;;;15.92;83.49;100583.00;5100877;28;20465;-66
2022/07/23 01:17:52;;;;;;;16.93;10.07;;;;;;;15.89;83.70;100572.56;5102110;28;20451;-65
2022/07/23 01:20:19;;;;;;;10.57;9.50;;;;;;;15.88;83.70;100571.72;5101878;28;20458;-65
2022/07/23 01:22:48;;;;;;;12.83;10.37;;;;;;;15.90;83.67;100579.63;5102747;28;20461;-65
2022/07/23 01:25:21;;;;;;;11.70;9.70;;;;;;;15.91;83.68;100584.03;5101592;28;20428;-65
2022/07/23 01:27:48;;;;;;;11.30;9.47;;;;;;;15.77;83.88;100572.88;5102184;28;20455;-65
2022/07/23 01:30:15;;;;;;;10.73;9.37;;;;;;;15.90;83.24;100576.94;5100716;28;20489;-65
2022/07/23 01:32:41;;;;;;;12.37;9.20;;;;;;;15.84;83.52;100573.06;5101767;28;20518;-65
2022/07/23 01:35:10;;;;;;;12.20;9.77;;;;;;;15.87;83.26;100578.13;5101293;28;20451;-65
2022/07/23 01:37:36;;;;;;;14.67;10.50;;;;;;;15.95;83.25;100570.06;5101635;28;20485;-65
2022/07/23 01:40:06;;;;;;;10.83;9.80;;;;;;;16.04;83.15;100565.50;5101979;28;20467;-65
2022/07/23 01:42:33;;;;;;;10.60;9.60;;;;;;;16.12;82.51;100557.38;5101352;28;20503;-64
2022/07/23 01:44:59;;;;;;;13.00;9.40;;;;;;;16.15;82.27;100562.44;5100740;28;20475;-65
2022/07/23 01:47:27;;;;;;;9.80;8.90;;;;;;;16.08;83.05;100547.97;5100305;28;20513;-66
2022/07/23 01:49:53;;;;;;;12.80;9.93;;;;;;;16.00;83.04;100551.53;5100654;28;20449;-66
2022/07/23 01:52:20;;;;;;;20.20;10.10;;;;;;;16.03;83.29;100542.22;5100963;28;20564;-64
2022/07/23 01:54:47;;;;;;;12.03;10.17;;;;;;;15.87;84.13;100537.69;5101288;28;20451;-65
2022/07/23 01:57:15;;;;;;;9.57;8.50;;;;;;;15.88;84.67;100528.56;5101615;28;20467;-66
2022/07/23 01:59:41;;;;;;;11.70;10.50;;;;;;;15.97;84.43;100519.50;5101580;28;20479;-64
2022/07/23 02:02:08;;;;;;;13.03;9.20;;;;;;;16.14;84.10;100505.97;5101634;28;20499;-65
2022/07/23 02:04:36;;;;;;;12.33;9.40;;;;;;;15.95;84.85;100507.16;5101940;28;20466;-65
2022/07/23 02:07:03;;;;;;;12.50;10.00;;;;;;;15.71;86.24;100503.44;5101115;28;20475;-65
2022/07/23 02:09:30;;;;;;;11.60;9.90;;;;;;;15.74;86.44;100505.78;5101822;28;20419;-65
2022/07/23 02:11:57;;;;;;;13.17;10.03;;;;;;;15.78;86.33;100514.44;5101276;28;20502;-65
2022/07/23 02:14:25;;;;;;;15.00;11.00;;;;;;;15.80;86.68;100504.31;5100988;28;20450;-65
2022/07/23 02:16:52;;;;;;;13.57;10.27;;;;;;;15.73;86.47;100509.50;5100628;28;20471;-65
2022/07/23 02:19:19;;;;;;;13.27;9.73;;;;;;;15.85;86.21;100496.56;5102097;28;20455;-65
2022/07/23 02:21:45;;;;;;;11.80;10.50;;;;;;;15.87;86.11;100491.03;5101251;28;21022;-66
2022/07/23 02:24:12;;;;;;;12.57;9.53;;;;;;;15.91;85.84;100492.34;5101868;28;20444;-65
2022/07/23 02:26:39;;;;;;;11.93;9.73;;;;;;;15.95;84.98;100497.25;5101167;28;20478;-66
2022/07/23 02:29:05;;;;;;;15.13;10.20;;;;;;;15.98;84.76;100486.09;5100528;28;20481;-65
2022/07/23 02:31:34;;;;;;;10.50;9.50;;;;;;;15.73;86.04;100493.34;5100277;28;20503;-65
2022/07/23 02:34:01;;;;;;;11.23;10.13;;;;;;;15.51;87.61;100511.00;5101093;28;20491;-65
2022/07/23 02:36:28;;;;;;;14.73;11.33;;;;;;;15.34;88.82;100515.50;5100162;28;20479;-65
2022/07/23 02:38:54;;;;;;;13.90;10.27;;;;;;;15.24;89.77;100523.75;5100775;28;20459;-65
2022/07/23 02:41:21;;;;;;;14.00;11.63;;;;;;;15.27;90.57;100525.25;5100388;28;20470;-65
2022/07/23 02:43:48;;;;;;;15.67;12.53;;;;;;;15.35;90.31;100528.00;5100706;28;20509;-65
2022/07/23 02:46:14;;;;;;;15.37;12.27;;;;;;;15.49;90.23;100529.19;5099780;27;20471;-65
2022/07/23 02:48:42;;;;;;;13.83;11.97;;;;;;;15.56;90.14;100522.13;5100671;28;20420;-65
2022/07/23 02:51:09;;;;;;;14.00;11.50;;;;;;;15.61;90.08;100513.56;5100216;27;21045;-65
2022/07/23 02:53:36;;;;;;;15.10;12.53;;;;;;;15.48;89.97;100521.28;5100709;28;20482;-65
2022/07/23 02:56:02;;;;;;;14.83;10.93;;;;;;;15.60;89.85;100518.06;5099784;27;20540;-65
2022/07/23 02:58:29;;;;;;;18.60;13.03;;;;;;;15.65;89.46;100530.22;5100263;28;20431;-66
2022/07/23 03:00:56;;;;;;;12.37;11.07;;;;;;;15.62;89.65;100543.03;5099676;27;20505;-65
2022/07/23 03:03:22;;;;;;;18.07;11.47;;;;;;;15.68;89.81;100535.28;5100965;28;20480;-66
2022/07/23 03:05:50;;;;;;;14.17;12.73;;;;;;;15.69;89.72;100528.88;5099889;27;20478;-65
2022/07/23 03:08:17;;;;;;;14.13;11.97;;;;;;;15.71;89.57;100518.75;5100343;28;20496;-65
2022/07/23 03:10:44;;;;;;;14.10;11.60;;;;;;;15.75;89.29;100517.47;5099527;27;20886;-65
2022/07/23 03:13:10;;;;;;;19.20;12.93;;;;;;;15.71;89.43;100516.06;5100523;28;20536;-65
2022/07/23 03:15:37;;;;;;;14.67;12.90;;;;;;;15.72;89.34;100518.59;5099227;27;20953;-65
2022/07/23 03:18:04;;;;;;;15.83;14.10;;;;;;;15.66;89.57;100513.03;5100234;28;20427;-65
2022/07/23 03:20:31;;;;;;;13.57;12.17;;;;;;;15.68;89.31;100511.03;5100089;27;20466;-65
2022/07/23 03:22:59;;;;;;;13.93;11.90;;;;;;;15.59;88.99;100520.97;5100362;28;20430;-65
2022/07/23 03:25:25;;;;;;;16.07;12.43;;;;;;;15.56;89.09;100507.81;5099461;27;20466;-66
2022/07/23 03:27:52;;;;;;;16.17;12.53;;;;;;;15.52;88.98;100511.84;5100529;28;20451;-67
2022/07/23 03:30:19;;;;;;;19.63;13.07;;;;;;;15.48;89.13;100510.50;5099358;27;20493;-66
2022/07/23 03:32:45;;;;;;;16.57;13.97;;;;;;;15.27;89.42;100524.44;5099881;28;20474;-65
2022/07/23 03:35:12;;;;;;;15.40;13.40;;;;;;;15.17;90.10;100528.13;5099552;27;20451;-65
2022/07/23 03:37:39;;;;;;;13.90;12.00;;;;;;;15.07;90.49;100530.94;5099865;28;20486;-65
2022/07/23 03:40:11;;;;;;;15.77;12.33;;;;;;;15.15;90.75;100519.34;5100300;28;20447;-65
2022/07/23 03:42:42;;;;;;;15.80;12.97;;;;;;;15.12;90.81;100519.69;5099541;28;20603;-65
2022/07/23 03:45:09;;;;;;;19.00;13.10;;;;;;;15.17;90.88;100517.34;5099355;27;20461;-65
2022/07/23 03:47:36;;;;;;;18.10;13.77;;;;;;;15.18;90.57;100519.00;5099438;28;20435;-65
2022/07/23 03:50:03;;;;;;;19.23;13.97;;;;;;;15.16;90.82;100531.81;5100311;28;20478;-65
2022/07/23 03:52:30;;;;;;;20.03;14.07;;;;;;;15.18;90.75;100528.94;5098613;27;20483;-65
2022/07/23 03:54:56;;;;;;;19.33;14.10;;;;;;;15.27;90.64;100529.81;5099907;28;20455;-65
2022/07/23 03:57:24;;;;;;;19.60;14.33;;;;;;;15.27;90.25;100525.25;5099596;27;20481;-65
2022/07/23 03:59:51;;;;;;;22.07;13.90;;;;;;;15.24;90.20;100525.59;5099487;28;20522;-65
2022/07/23 04:02:18;;;;;;;18.30;13.30;;;;;;;15.36;90.53;100518.91;5099521;27;20505;-65
2022/07/23 04:04:44;;;;;;;19.40;14.33;;;;;;;15.38;90.15;100522.28;5099500;28;20450;-66
2022/07/23 04:07:11;;;;;;;16.30;13.63;;;;;;;15.38;90.17;100522.28;5099621;27;20506;-65
2022/07/23 04:09:40;;;;;;;20.90;14.00;;;;;;;15.36;90.15;100512.66;5100032;28;20432;-65
2022/07/23 04:12:07;;;;;;;17.13;13.30;;;;;;;15.24;90.23;100518.38;5099486;28;20502;-66
2022/07/23 04:14:35;;;;;;;17.80;14.77;;;;;;;15.17;90.76;100520.03;5101816;28;21006;-65
2022/07/23 04:17:02;;;;;;;18.03;13.60;;;;;;;15.30;90.82;100518.72;5102690;27;20475;-66
2022/07/23 04:19:30;;;;;;;17.70;14.50;;;;;;;15.33;90.80;100524.63;5104156;28;20846;-66
2022/07/23 04:21:56;;;;;;;23.70;13.30;;;;;;;15.40;90.55;100525.63;5103361;27;20479;-66
2022/07/23 04:24:23;;;;;;;17.20;14.13;;;;;;;15.50;90.48;100525.50;5103273;28;20521;-66
2022/07/23 04:26:50;;;;;;;18.53;13.77;;;;;;;15.68;89.95;100527.19;5103229;27;20478;-66
2022/07/23 04:29:16;;;;;;;18.70;14.23;;;;;;;15.65;89.27;100522.97;5103282;28;20475;-66
2022/07/23 04:31:44;;;;;;;23.53;14.97;;;;;;;15.64;89.07;100521.31;5103324;27;20471;-65
2022/07/23 04:34:11;;;;;;;21.50;14.53;;;;;;;15.77;88.80;100521.66;5103228;28;20490;-66
2022/07/23 04:36:37;;;;;;;22.00;14.87;;;;;;;16.59;87.40;100525.28;5102641;27;20494;-65
2022/07/23 04:39:04;;;;;;;21.30;16.40;;;;;;;17.77;84.16;100517.06;5103662;28;20435;-65
2022/07/23 04:41:31;;;;;;;18.80;14.83;;;;;;;18.48;77.26;100511.38;5102027;27;20475;-65
2022/07/23 04:43:57;;;;;;;19.70;13.20;;;;;;;19.42;73.48;100516.13;5102698;28;20476;-66
2022/07/23 04:46:24;;;;;;;12.83;11.60;;;;;;;20.18;69.43;100528.34;5101806;27;20495;-66
2022/07/23 04:48:52;;;;;;;16.20;9.97;;;;;;;20.43;66.64;100518.72;5102812;28;20435;-66
2022/07/23 04:51:19;;;;;;;11.67;9.70;;;;;;;21.00;64.41;100524.06;5102502;27;20506;-66
2022/07/23 04:53:45;;;;;;;10.07;9.03;;;;;;;20.79;63.65;100522.28;5103188;28;20536;-66
2022/07/23 04:56:12;;;;;;;8.63;7.40;;;;;;;21.32;61.86;100521.66;5102478;28;20478;-66
2022/07/23 04:58:41;;;;;;;9.40;8.50;;;;;;;21.28;61.85;100526.66;5102482;28;20434;-66
2022/07/23 05:01:08;;;;;;;8.63;7.80;;;;;;;21.38;60.94;100529.84;5102735;27;20500;-66
2022/07/23 05:03:34;;;;;;;7.93;7.10;;;;;;;21.56;60.54;100531.16;5102961;28;20450;-66
2022/07/23 05:06:02;;;;;;;10.50;7.43;;;;;;;21.80;59.44;100533.31;5102494;27;20479;-66
2022/07/23 05:08:29;;;;;;;8.53;7.17;;;;;;;22.24;57.46;100531.03;5102629;28;20475;-66
2022/07/23 05:10:56;;;;;;;9.47;7.20;;;;;;;22.68;56.70;100534.13;5101756;27;20466;-65
2022/07/23 05:13:23;;;;;;;10.70;7.30;;;;;;;22.62;56.28;100540.41;5102199;28;20979;-64
2022/07/23 05:15:49;;;;;;;8.47;6.33;;;;;;;23.05;55.23;100537.13;5101975;27;20565;-64
2022/07/23 05:18:16;;;;;;;9.40;7.10;;;;;;;23.55;54.16;100528.31;5102331;28;20436;-65
2022/07/23 05:20:43;;;;;;;13.40;6.40;;;;;;;23.59;53.09;100532.28;5101750;27;20657;-64
2022/07/23 05:23:11;;;;;;;7.60;6.80;;;;;;;23.45;53.23;100543.28;5102463;28;20457;-65
2022/07/23 05:25:37;;;;;;;7.63;6.30;;;;;;;24.06;51.69;100541.00;5101821;27;20520;-65
2022/07/23 05:28:04;;;;;;;8.20;5.87;;;;;;;24.55;49.99;100543.97;5102654;28;20473;-65
2022/07/23 05:30:31;;;;;;;9.20;5.77;;;;;;;23.84;51.42;100537.81;5101142;27;20465;-65
2022/07/23 05:32:57;;;;;;;7.77;5.90;;;;;;;24.38;49.32;100530.84;5102482;28;20546;-64
2022/07/23 05:35:24;;;;;;;9.20;5.63;;;;;;;24.93;48.52;100524.59;5101298;27;20523;-65
2022/07/23 05:37:52;;;;;;;5.93;5.30;;;;;;;25.09;47.77;100534.09;5101775;28;20542;-65
2022/07/23 05:40:20;;;;;;;6.60;6.00;;;;;;;24.95;48.36;100532.59;5101525;27;20443;-64
2022/07/23 05:42:47;;;;;;;7.90;6.37;;;;;;;24.97;48.70;100535.91;5102284;28;20485;-65
2022/07/23 05:45:14;;;;;;;5.83;5.23;;;;;;;25.13;47.72;100542.66;5100824;27;20516;-64
2022/07/23 05:47:42;;;;;;;7.33;6.47;;;;;;;24.35;48.43;100547.66;5100716;28;20451;-64
2022/07/23 05:50:09;;;;;;;6.97;6.30;;;;;;;24.22;51.72;100545.91;5101383;27;20447;-64
2022/07/23 05:52:36;;;;;;;6.40;5.80;;;;;;;25.65;47.68;100545.75;5101663;28;20443;-65
2022/07/23 05:55:03;;;;;;;8.70;6.20;;;;;;;26.05;46.10;100556.13;5101812;28;20916;-65
2022/07/23 05:57:31;;;;;;;7.53;5.53;;;;;;;26.46;44.42;100550.81;5101134;27;20479;-65
2022/07/23 05:59:57;;;;;;;7.73;6.23;;;;;;;26.55;45.02;100545.81;5100785;28;20504;-65
2022/07/23 06:02:24;;;;;;;7.67;5.50;;;;;;;26.13;45.24;100549.50;5100907;27;20534;-65
2022/07/23 06:04:51;;;;;;;7.83;5.80;;;;;;;26.23;45.73;100551.63;5101600;28;20466;-65
2022/07/23 06:07:17;;;;;;;8.33;5.97;;;;;;;25.79;46.52;100553.78;5100870;27;21027;-65
2022/07/23 06:09:44;;;;;;;7.00;5.47;;;;;;;26.11;46.00;100557.13;5100842;28;20435;-66
2022/07/23 06:12:11;;;;;;;7.60;6.00;;;;;;;25.78;45.49;100554.84;5100975;27;20521;-65
2022/07/23 06:14:39;;;;;;;5.53;5.03;;;;;;;26.15;45.88;100555.56;5100801;28;20486;-64
2022/07/23 06:17:05;;;;;;;10.87;6.83;;;;;;;26.62;43.40;100554.78;5100733;27;20470;-65
2022/07/23 06:19:32;;;;;;;6.37;5.53;;;;;;;26.67;42.49;100558.47;5101108;28;20446;-65
2022/07/23 06:21:59;;;;;;;5.83;4.50;;;;;;;27.33;41.27;100558.22;5100353;27;20501;-65
2022/07/23 06:24:25;;;;;;;9.80;5.07;;;;;;;27.40;40.83;100561.66;5101359;28;20499;-65
2022/07/23 06:26:52;;;;;;;7.43;4.90;;;;;;;27.15;40.89;100563.84;5100268;27;20482;-65
2022/07/23 06:29:19;;;;;;;7.30;5.00;;;;;;;27.23;41.90;100568.97;5100562;28;20526;-65
2022/07/23 06:31:47;;;;;;;5.77;5.17;;;;;;;27.58;40.35;100568.03;5100506;27;20475;-65
2022/07/23 06:34:13;;;;;;;5.93;4.07;;;;;;;28.29;38.39;100573.13;5101695;28;20494;-66
2022/07/23 06:36:40;;;;;;;5.33;4.10;;;;;;;28.05;38.45;100580.72;5100338;27;20507;-65
2022/07/23 06:39:07;;;;;;;6.90;3.53;;;;;;;28.03;37.32;100575.44;5101735;28;20868;-66
2022/07/23 06:41:34;;;;;;;6.17;3.67;;;;;;;28.03;38.79;100577.38;5100301;27;20474;-65
2022/07/23 06:44:00;;;;;;;4.47;3.50;;;;;;;27.54;40.08;100588.84;5100845;28;20479;-65
2022/07/23 06:46:27;;;;;;;6.00;4.30;;;;;;;25.33;43.62;100578.03;5099644;27;20489;-65
2022/07/23 06:48:55;;;;;;;4.27;3.60;;;;;;;26.78;41.17;100592.44;5101163;28;20442;-65
2022/07/23 06:51:22;;;;;;;6.80;4.10;;;;;;;27.13;40.04;100583.31;5100232;27;20549;-66
2022/07/23 06:53:48;;;;;;;4.83;3.40;;;;;;;28.20;38.11;100582.88;5101148;28;21029;-66
2022/07/23 06:56:15;;;;;;;6.60;3.90;;;;;;;28.49;37.84;100594.63;5100575;27;20479;-66
2022/07/23 06:58:42;;;;;;;9.80;4.40;;;;;;;28.50;37.39;100590.78;5100834;28;20463;-66
2022/07/23 07:01:09;;;;;;;10.23;4.23;;;;;;;26.93;41.31;100596.63;5100267;27;20501;-66
2022/07/23 07:03:36;;;;;;;4.53;4.10;;;;;;;27.24;40.52;100596.19;5101115;28;20519;-66
2022/07/23 07:06:04;;;;;;;6.97;3.80;;;;;;;28.73;37.43;100590.63;5100648;27;20479;-66
2022/07/23 07:08:31;;;;;;;6.83;4.13;;;;;;;28.84;37.79;100585.25;5100853;28;20431;-66
2022/07/23 07:10:57;;;;;;;5.50;3.90;;;;;;;29.48;35.77;100591.03;5100121;27;20482;-66
2022/07/23 07:13:24;;;;;;;7.33;4.77;;;;;;;28.45;36.87;100588.78;5100861;28;20454;-66
2022/07/23 07:15:51;;;;;;;7.63;4.10;;;;;;;27.56;38.21;100584.75;5099639;28;20471;-66
2022/07/23 07:18:17;;;;;;;6.57;4.50;;;;;;;26.06;42.98;100584.38;5100864;28;20522;-66
2022/07/23 07:20:44;;;;;;;4.40;3.40;;;;;;;26.62;42.26;100591.25;5100157;27;20498;-66
2022/07/23 07:23:13;;;;;;;5.40;3.93;;;;;;;25.45;43.67;100600.81;5100743;28;20434;-66
2022/07/23 07:25:39;;;;;;;7.60;4.33;;;;;;;24.11;47.16;100598.53;5100054;28;20459;-66
2022/07/23 07:28:06;;;;;;;8.30;4.07;;;;;;;24.52;46.32;100604.50;5100552;28;20510;-65
2022/07/23 07:30:33;;;;;;;7.17;4.80;;;;;;;26.12;43.24;100599.88;5098845;27;20504;-65
2022/07/23 07:32:59;;;;;;;9.40;4.43;;;;;;;25.65;44.16;100608.75;5099977;28;20463;-65
2022/07/23 07:35:26;;;;;;;5.50;3.90;;;;;;;25.50;44.02;100605.56;5098965;27;20470;-65
2022/07/23 07:37:53;;;;;;;6.37;4.57;;;;;;;26.20;42.30;100609.69;5100041;28;20479;-65
2022/07/23 07:40:21;;;;;;;6.83;4.63;;;;;;;24.95;46.22;100611.91;5099119;27;20904;-65
2022/07/23 07:42:49;;;;;;;4.53;4.10;;;;;;;25.23;45.10;100621.47;5099329;28;20481;-65
2022/07/23 07:45:16;;;;;;;7.30;4.60;;;;;;;24.95;43.09;100615.47;5098821;28;20526;-65
2022/07/23 07:47:43;;;;;;;6.10;3.97;;;;;;;26.18;42.84;100611.78;5099452;28;20435;-65
2022/07/23 07:50:10;;;;;;;5.67;4.10;;;;;;;25.60;42.53;100619.56;5102573;27;20439;-65
2022/07/23 07:52:37;;;;;;;4.20;3.50;;;;;;;24.95;44.58;100626.41;5078753;28;20487;-65
2022/07/23 07:55:05;;;;;;;4.07;3.67;;;;;;;25.51;42.39;100623.69;5061344;28;20515;-65
2022/07/23 07:57:33;;;;;;;3.27;2.97;;;;;;;26.81;40.60;100633.09;5062894;28;20546;-65
2022/07/23 08:00:00;;;;;;;5.63;3.87;;;;;;;26.52;41.20;100629.38;5061904;28;20993;-66
2022/07/23 08:02:27;;;;;;;4.20;3.37;;;;;;;26.24;41.08;100630.88;5080891;28;20568;-66
2022/07/23 08:04:53;;;;;;;6.83;3.60;;;;;;;25.31;42.17;100634.88;5082727;28;20517;-66
2022/07/23 08:07:20;;;;;;;4.83;3.70;;;;;;;23.67;45.34;100636.56;5082524;28;21020;-66
2022/07/23 08:09:47;;;;;;;6.77;4.10;;;;;;;22.70;48.16;100638.31;5082247;28;20439;-66
2022/07/23 08:12:13;;;;;;;5.40;3.63;;;;;;;25.73;41.59;100641.28;5082125;28;20472;-66
2022/07/23 08:14:41;;;;;;;4.80;3.30;;;;;;;25.90;40.92;100633.28;5082018;28;20519;-66
2022/07/23 08:17:08;;;;;;;4.53;3.50;;;;;;;27.98;36.76;100638.56;5081107;28;20467;-66
2022/07/23 08:19:35;;;;;;;4.73;3.23;;;;;;;30.21;34.16;100633.97;5082572;28;20531;-66
2022/07/23 08:22:01;;;;;;;3.13;2.57;;;;;;;28.04;36.89;100640.34;5081614;28;20548;-66
2022/07/23 08:24:28;;;;;;;3.70;2.50;;;;;;;26.53;39.29;100636.53;5081629;28;20545;-66
2022/07/23 08:26:55;;;;;;;5.00;3.10;;;;;;;25.44;41.22;100647.56;5081767;28;20500;-66
2022/07/23 08:29:22;;;;;;;3.70;2.83;;;;;;;24.45;43.96;100642.81;5082142;28;20472;-66
2022/07/23 08:31:50;;;;;;;2.93;2.40;;;;;;;25.28;42.79;100646.31;5081422;28;20468;-66
2022/07/23 08:34:16;;;;;;;5.70;3.33;;;;;;;25.48;41.60;100646.88;5081951;28;20511;-65
2022/07/23 08:36:43;;;;;;;4.50;3.10;;;;;;;26.82;38.70;100640.28;5081680;28;20977;-65
2022/07/23 08:39:10;;;;;;;4.30;2.80;;;;;;;26.69;39.63;100646.00;5082012;28;20470;-65
2022/07/23 08:41:36;;;;;;;4.00;2.80;;;;;;;26.97;39.28;100647.19;5081352;28;20479;-65
2022/07/23 08:44:03;;;;;;;3.90;2.90;;;;;;;26.39;38.20;100644.16;5081839;28;20455;-65
2022/07/23 08:46:30;;;;;;;4.00;3.10;;;;;;;26.95;39.17;100646.59;5079921;28;21101;-66
2022/07/23 08:48:58;;;;;;;4.43;2.77;;;;;;;26.13;39.89;100645.41;5082323;28;20468;-65
2022/07/23 08:51:28;;;;;;;3.97;3.17;;;;;;;25.63;40.38;100648.38;5080652;28;20483;-65
2022/07/23 08:53:57;;;;;;;6.60;3.30;;;;;;;24.11;44.24;100646.88;5081292;28;20996;-67
2022/07/23 08:56:24;;;;;;;5.30;3.37;;;;;;;23.78;45.68;100650.59;5080850;28;21091;-67
2022/07/23 08:58:51;;;;;;;5.00;3.30;;;;;;;25.15;42.88;100653.56;5081271;28;20893;-66
2022/07/23 09:01:17;;;;;;;5.23;3.20;;;;;;;25.74;41.80;100645.72;5079689;28;20483;-66
2022/07/23 09:03:44;;;;;;;4.67;3.10;;;;;;;27.96;36.28;100647.06;5081867;28;20436;-66
2022/07/23 09:06:12;;;;;;;4.63;3.20;;;;;;;27.61;37.60;100650.75;5081312;28;20482;-66
2022/07/23 09:08:40;;;;;;;3.80;3.20;;;;;;;29.82;32.04;100645.16;5081204;28;20440;-66
2022/07/23 09:11:09;;;;;;;3.50;2.40;;;;;;;30.32;32.60;100648.69;5081190;28;20545;-66
2022/07/23 09:13:38;;;;;;;6.60;3.23;;;;;;;30.59;32.48;100652.25;5081369;28;20495;-66
2022/07/23 09:16:08;;;;;;;4.10;3.10;;;;;;;29.37;32.73;100647.09;5079828;28;21055;-66
2022/07/23 09:18:41;;;;;;;4.60;2.90;;;;;;;29.78;32.47;100653.13;5081698;28;20432;-65
2022/07/23 09:21:14;;;;;;;4.30;3.20;;;;;;;29.03;33.80;100657.38;5080962;28;20476;-65
2022/07/23 09:23:43;;;;;;;5.80;3.40;;;;;;;30.02;32.77;100655.59;5080646;28;20442;-65
2022/07/23 09:26:32;;;;;;;9.03;3.43;;;;;;;30.38;32.73;100653.16;5080730;28;20533;-65
2022/07/23 09:29:09;;;;;;;3.90;3.57;;;;;;;28.03;36.72;100654.34;5081610;28;20467;-66
2022/07/23 09:31:47;;;;;;;5.73;3.93;;;;;;;26.78;38.62;100655.53;5079984;28;20463;-65
2022/07/23 09:34:17;;;;;;;5.93;4.07;;;;;;;27.21;38.08;100657.03;5081086;28;20511;-65
2022/07/23 09:36:45;;;;;;;7.10;4.07;;;;;;;27.10;38.42;100651.56;5079622;28;20541;-65
2022/07/23 09:39:13;;;;;;;4.43;2.67;;;;;;;28.53;37.33;100659.03;5081548;28;20432;-65
2022/07/23 09:41:43;;;;;;;4.50;4.03;;;;;;;28.99;34.42;100658.94;5080715;28;20480;-65
2022/07/23 09:44:15;;;;;;;3.77;3.03;;;;;;;27.61;36.92;100660.94;5080162;28;20483;-64
2022/07/23 09:46:43;;;;;;;6.33;3.87;;;;;;;26.51;38.45;100660.63;5079979;28;20515;-65
2022/07/23 09:49:15;;;;;;;6.53;3.30;;;;;;;25.51;41.38;100670.22;5081486;28;20553;-64
2022/07/23 09:51:50;;;;;;;4.43;3.70;;;;;;;26.74;39.46;100665.31;5079947;28;20707;-65
2022/07/23 09:54:31;;;;;;;4.03;3.30;;;;;;;27.48;39.29;100658.44;5080683;28;20475;-65
2022/07/23 09:56:59;;;;;;;8.00;3.60;;;;;;;26.00;37.98;100651.91;5079598;28;20481;-66
2022/07/23 09:59:28;;;;;;;4.20;3.03;;;;;;;25.46;40.47;100659.94;5079453;28;20814;-65
2022/07/23 10:01:56;;;;;;;6.50;3.00;;;;;;;25.12;41.72;100667.69;5079973;28;20476;-65
2022/07/23 10:04:24;;;;;;;3.70;2.40;;;;;;;25.02;42.45;100670.09;5080644;28;20455;-65
2022/07/23 10:06:54;;;;;;;6.27;3.20;;;;;;;24.35;43.24;100665.19;5079171;28;20482;-64
2022/07/23 10:09:24;;;;;;;4.83;3.03;;;;;;;24.04;44.62;100675.06;5080936;28;20425;-65
2022/07/23 10:11:52;;;;;;;4.47;3.17;;;;;;;24.77;42.38;100665.50;5079161;28;20570;-65
2022/07/23 10:14:19;;;;;;;5.43;3.10;;;;;;;27.01;39.86;100673.91;5079333;28;20506;-65
2022/07/23 10:16:46;;;;;;;5.10;3.30;;;;;;;27.99;36.16;100662.25;5079487;28;20479;-65
2022/07/23 10:19:13;;;;;;;2.73;2.40;;;;;;;28.21;36.13;100662.38;5080634;28;20435;-65
2022/07/23 10:21:42;;;;;;;3.57;2.70;;;;;;;30.07;32.26;100657.53;5078950;28;20468;-66
2022/07/23 10:24:18;;;;;;;3.30;2.90;;;;;;;29.15;34.80;100665.50;5080329;28;20530;-66
2022/07/23 10:26:53;;;;;;;4.73;2.97;;;;;;;30.25;31.79;100662.69;5099086;27;20477;-66
2022/07/23 10:29:29;;;;;;;3.07;2.27;;;;;;;29.06;32.70;100657.69;5099449;28;20438;-65
2022/07/23 10:32:00;;;;;;;5.23;2.90;;;;;;;27.95;33.60;100659.16;5099776;28;20505;-65
2022/07/23 10:34:35;;;;;;;3.07;2.73;;;;;;;27.94;35.98;100657.47;5100432;28;20566;-65
2022/07/23 10:37:08;;;;;;;3.47;2.90;;;;;;;27.38;36.43;100662.66;5098863;28;20482;-65
2022/07/23 10:39:37;;;;;;;4.83;2.70;;;;;;;26.31;38.67;100659.00;5099795;28;20920;-65
2022/07/23 10:42:11;;;;;;;5.17;3.53;;;;;;;25.60;40.74;100662.53;5099517;28;20474;-65
2022/07/23 10:44:42;;;;;;;4.90;2.60;;;;;;;26.41;41.87;100665.84;5099047;28;20461;-65
2022/07/23 10:50:18;;;;;;;4.53;2.97;;;;;;;27.50;36.19;100650.78;5094790;28;20468;-65
2022/07/23 10:53:11;;;;;;;4.60;2.80;;;;;;;27.23;39.50;100648.56;5099478;28;20463;-65
2022/07/23 10:55:43;;;;;;;3.80;2.90;;;;;;;28.93;34.07;100644.28;5098440;28;20475;-64
2022/07/23 10:58:10;;;;;;;5.43;3.40;;;;;;;28.46;34.87;100650.13;5099729;28;20423;-65
2022/07/23 11:00:37;;;;;;;5.27;2.53;;;;;;;28.83;33.52;100655.13;5098736;28;20466;-64
2022/07/23 11:03:06;;;;;;;4.37;2.13;;;;;;;28.85;33.63;100650.22;5099398;28;20471;-65
2022/07/23 11:05:44;;;;;;;3.37;3.00;;;;;;;29.33;35.00;100665.22;5098178;28;21003;-65
2022/07/23 11:08:20;;;;;;;5.37;2.40;;;;;;;28.52;34.11;100660.97;5100070;28;20431;-65
2022/07/23 11:10:49;;;;;;;6.10;2.40;;;;;;;29.62;32.63;100656.78;5099209;28;20486;-65
2022/07/23 11:13:30;;;;;;;5.57;2.33;;;;;;;29.15;33.86;100660.84;5098785;28;20450;-64
2022/07/23 11:16:25;;;;;;;3.57;2.60;;;;;;;28.97;34.10;100642.69;5098868;28;20485;-65
2022/07/23 11:19:08;;;;;;;2.83;2.60;;;;;;;26.80;38.26;100652.53;5074803;28;20514;-65
2022/07/23 11:21:48;;;;;;;3.27;2.43;;;;;;;26.83;38.23;100657.56;5098314;28;20470;-66
2022/07/23 11:24:19;;;;;;;3.30;2.37;;;;;;;28.68;35.59;100650.25;5099368;28;20476;-65
2022/07/23 11:26:48;;;;;;;6.03;3.43;;;;;;;26.97;36.85;100650.75;5098767;28;20489;-65